Time;durP1;ratioP1;P1;durP2;ratioP2;P2;SDS_P1;SDS_P2;PMS_P1;PMS_P2;Temp;Humidity;BMP_temperature;BMP_pressure;BME280_temperature;BME280_humidity;BME280_pressure;Samples;Min_cycle;Max_cycle;Signal;HPM_P1;HPM_P2
2022/12/11 00:01:38;;;;;;;72.43;30.67;;;0.80;99.90;;;;;;5047975;28;20278;-79
2022/12/11 00:04:27;;;;;;;71.57;30.13;;;0.80;99.90;;;;;;5044554;28;21060;-79
2022/12/11 00:07:16;;;;;;;70.33;30.03;;;0.90;99.90;;;;;;5045677;28;20225;-78
2022/12/11 00:10:06;;;;;;;67.30;29.33;;;0.80;99.90;;;;;;5045353;28;20225;-79
2022/12/11 00:12:57;;;;;;;68.53;30.87;;;0.80;99.90;;;;;;5038430;28;20229;-79
2022/12/11 00:15:46;;;;;;;68.23;29.30;;;0.80;99.90;;;;;;5037538;28;20221;-79
2022/12/11 00:18:35;;;;;;;79.77;30.33;;;0.90;99.90;;;;;;5044055;28;20268;-78
2022/12/11 00:21:24;;;;;;;74.03;30.33;;;0.90;99.90;;;;;;5039855;28;20834;-78
2022/12/11 00:24:13;;;;;;;70.17;30.00;;;0.80;99.90;;;;;;5039105;28;20216;-80
2022/12/11 00:27:02;;;;;;;80.33;30.77;;;0.60;99.90;;;;;;5060394;28;20243;-78
2022/12/11 00:29:52;;;;;;;77.27;31.70;;;0.50;99.90;;;;;;5045938;28;20909;-77
2022/12/11 00:32:41;;;;;;;76.70;30.43;;;0.70;99.90;;;;;;5056326;28;20221;-78
2022/12/11 00:35:30;;;;;;;72.93;29.23;;;0.70;99.90;;;;;;5041000;28;20234;-78
2022/12/11 00:38:21;;;;;;;74.23;28.50;;;0.80;99.90;;;;;;5056669;28;20240;-77
2022/12/11 00:41:09;;;;;;;67.77;27.13;;;0.40;99.90;;;;;;5044312;28;20222;-78
2022/12/11 00:43:58;;;;;;;73.07;28.93;;;0.40;99.90;;;;;;5054585;28;20225;-80
2022/12/11 00:46:48;;;;;;;72.60;28.93;;;0.50;99.90;;;;;;5040083;28;20404;-79
2022/12/11 00:49:37;;;;;;;75.03;29.50;;;0.70;99.90;;;;;;5042339;28;20214;-78
2022/12/11 00:52:26;;;;;;;76.23;29.27;;;0.50;99.90;;;;;;5055359;28;20222;-79
2022/12/11 00:55:14;;;;;;;72.50;28.30;;;0.60;99.90;;;;;;5058994;28;20792;-79
2022/12/11 00:58:03;;;;;;;70.00;28.87;;;0.70;99.90;;;;;;5042012;28;20239;-80
2022/12/11 01:00:52;;;;;;;69.97;28.77;;;0.70;99.90;;;;;;5054348;28;20226;-79
2022/12/11 01:03:43;;;;;;;67.53;27.60;;;0.70;99.90;;;;;;5041828;28;20225;-79
2022/12/11 01:06:32;;;;;;;66.37;28.63;;;0.80;99.90;;;;;;5044245;28;20225;-78
2022/12/11 01:12:25;;;;;;;68.50;27.20;;;0.80;99.90;;;;;;5026452;28;20595;-76
2022/12/11 01:15:14;;;;;;;63.90;27.80;;;1.00;99.90;;;;;;5053701;28;20711;-78
2022/12/11 01:18:03;;;;;;;60.47;24.93;;;1.00;99.90;;;;;;5056420;28;20219;-77
2022/12/11 01:20:53;;;;;;;61.87;26.40;;;0.70;99.90;;;;;;5041397;28;20323;-77
2022/12/11 01:23:42;;;;;;;63.23;25.83;;;0.70;99.90;;;;;;5047173;28;20337;-78
2022/12/11 01:26:30;;;;;;;57.20;24.77;;;0.70;99.90;;;;;;5045734;28;20735;-79
2022/12/11 01:29:19;;;;;;;60.30;25.70;;;0.60;99.90;;;;;;5055305;28;20236;-79
2022/12/11 01:32:08;;;;;;;60.77;24.73;;;0.60;99.90;;;;;;5041164;28;20233;-79
2022/12/11 01:34:56;;;;;;;55.27;23.63;;;0.60;99.90;;;;;;5047381;28;20230;-79
2022/12/11 01:37:46;;;;;;;58.50;24.57;;;0.80;99.90;;;;;;5043034;28;20222;-79
2022/12/11 01:40:35;;;;;;;59.17;24.47;;;0.90;99.90;;;;;;5049506;28;20218;-79
2022/12/11 01:43:24;;;;;;;58.10;24.60;;;0.80;99.90;;;;;;5041330;28;20286;-79
2022/12/11 01:46:13;;;;;;;57.70;24.67;;;0.70;99.90;;;;;;5044117;28;20212;-80
2022/12/11 01:49:04;;;;;;;60.77;24.23;;;0.70;99.90;;;;;;5040066;28;20248;-80
2022/12/11 01:51:56;;;;;;;57.57;23.10;;;0.50;99.90;;;;;;5046393;28;20694;-79
2022/12/11 01:54:48;;;;;;;58.80;23.93;;;0.40;99.90;;;;;;5039462;28;20637;-79
2022/12/11 01:57:37;;;;;;;63.57;25.40;;;0.50;99.90;;;;;;5047365;28;20217;-77
2022/12/11 02:00:26;;;;;;;59.27;24.27;;;0.70;99.90;;;;;;5049560;28;20307;-79
2022/12/11 02:03:15;;;;;;;53.53;21.53;;;0.40;99.90;;;;;;5059013;28;20595;-81
2022/12/11 02:06:04;;;;;;;58.33;23.10;;;0.40;99.90;;;;;;5041505;28;20216;-81
2022/12/11 02:08:53;;;;;;;48.53;20.77;;;0.30;99.90;;;;;;5043024;28;20231;-81
2022/12/11 02:11:52;;;;;;;50.93;22.17;;;0.20;99.90;;;;;;5039747;28;20225;-80
2022/12/11 02:14:49;;;;;;;50.63;21.27;;;0.10;99.90;;;;;;5062945;28;20641;-79
2022/12/11 02:17:44;;;;;;;53.37;22.73;;;0.00;99.90;;;;;;5042643;28;20224;-79
2022/12/11 02:20:37;;;;;;;56.23;22.33;;;0.00;99.90;;;;;;5038036;28;20237;-79
2022/12/11 02:23:48;;;;;;;54.20;22.70;;;0.00;99.90;;;;;;5053844;28;20216;-79
2022/12/11 02:27:03;;;;;;;50.23;21.93;;;0.20;99.90;;;;;;5049196;28;20849;-79
2022/12/11 02:30:03;;;;;;;53.97;22.83;;;0.10;99.90;;;;;;5055786;28;20223;-78
2022/12/11 02:32:56;;;;;;;47.10;20.30;;;0.00;99.90;;;;;;5033314;28;20220;-79
2022/12/11 02:35:47;;;;;;;55.00;22.53;;;0.00;99.90;;;;;;5054193;28;20357;-79
2022/12/11 02:38:40;;;;;;;53.83;21.50;;;0.00;99.90;;;;;;5033048;28;20226;-78
2022/12/11 02:41:31;;;;;;;50.77;22.00;;;0.00;99.90;;;;;;5046187;28;20216;-80
2022/12/11 02:44:24;;;;;;;50.20;20.73;;;0.00;99.90;;;;;;5038076;28;20239;-79
2022/12/11 02:47:16;;;;;;;51.87;22.23;;;0.00;99.90;;;;;;5057055;28;20213;-79
2022/12/11 02:50:10;;;;;;;53.07;22.47;;;0.00;99.90;;;;;;5042472;28;20714;-83
2022/12/11 02:53:00;;;;;;;49.97;21.93;;;0.10;99.90;;;;;;5041166;28;20232;-79
2022/12/11 02:55:56;;;;;;;52.13;22.53;;;0.00;99.90;;;;;;5051994;28;20232;-79
2022/12/11 02:58:49;;;;;;;59.33;22.63;;;0.20;99.90;;;;;;5042915;28;20216;-79
2022/12/11 03:01:46;;;;;;;49.30;20.63;;;0.20;99.90;;;;;;5046045;28;20726;-79
2022/12/11 03:04:36;;;;;;;53.13;22.80;;;0.00;99.90;;;;;;5044252;28;20219;-79
2022/12/11 03:07:29;;;;;;;47.20;21.37;;;0.00;99.90;;;;;;5059326;28;20217;-78
2022/12/11 03:10:19;;;;;;;48.10;20.70;;;0.10;99.90;;;;;;5043213;28;20231;-79
2022/12/11 03:13:08;;;;;;;51.97;22.50;;;-0.10;99.90;;;;;;5058516;28;20220;-79
2022/12/11 03:16:07;;;;;;;47.30;20.60;;;0.00;99.90;;;;;;5065633;28;20313;-79
2022/12/11 03:19:05;;;;;;;53.77;22.70;;;-0.10;99.90;;;;;;5039236;28;20248;-80
2022/12/11 03:22:01;;;;;;;51.80;22.73;;;-0.20;99.90;;;;;;5057856;28;20216;-80
2022/12/11 03:24:54;;;;;;;55.07;23.17;;;-0.10;99.90;;;;;;5047101;28;20303;-79
2022/12/11 03:27:48;;;;;;;40.23;18.43;;;0.10;99.90;;;;;;5037779;28;20220;-77
2022/12/11 03:30:40;;;;;;;45.87;20.50;;;0.00;99.90;;;;;;5059064;28;20232;-79
2022/12/11 03:33:34;;;;;;;45.47;20.17;;;-0.10;99.90;;;;;;5042676;28;20216;-79
2022/12/11 03:36:30;;;;;;;44.33;19.17;;;-0.20;99.90;;;;;;5050547;28;20220;-79
2022/12/11 03:39:25;;;;;;;44.97;18.50;;;-0.10;99.90;;;;;;5058059;28;20241;-78
2022/12/11 03:42:16;;;;;;;40.90;18.90;;;-0.30;99.90;;;;;;5039463;28;20594;-79
2022/12/11 03:45:08;;;;;;;43.57;19.47;;;0.00;99.90;;;;;;5040513;28;20217;-78
2022/12/11 03:48:01;;;;;;;43.50;19.00;;;0.20;99.90;;;;;;5056380;28;20223;-78
2022/12/11 03:50:51;;;;;;;40.73;19.17;;;0.20;99.90;;;;;;5047574;28;20282;-77
2022/12/11 03:53:40;;;;;;;44.63;19.83;;;0.40;99.90;;;;;;5043414;28;20232;-79
2022/12/11 03:56:34;;;;;;;40.63;19.00;;;0.40;99.90;;;;;;5050729;28;20228;-79
2022/12/11 03:59:23;;;;;;;41.93;19.33;;;0.60;99.90;;;;;;5044426;28;20231;-79
2022/12/11 04:02:11;;;;;;;42.00;19.23;;;0.60;99.90;;;;;;5058566;28;20246;-80
2022/12/11 04:05:01;;;;;;;42.43;18.70;;;0.60;99.90;;;;;;5058742;28;20251;-79
2022/12/11 04:07:49;;;;;;;39.70;19.47;;;0.50;99.90;;;;;;5043856;28;20223;-81
2022/12/11 04:10:38;;;;;;;41.70;19.97;;;0.20;99.90;;;;;;5044376;28;20219;-81
2022/12/11 04:13:29;;;;;;;43.53;19.50;;;0.10;99.90;;;;;;5040538;28;20801;-78
2022/12/11 04:16:16;;;;;;;40.33;20.37;;;0.00;99.90;;;;;;5058978;28;22155;-79
2022/12/11 04:25:19;;;;;;;42.03;19.17;;;-0.30;99.90;;;;;;5045451;28;20224;-78
2022/12/11 04:28:09;;;;;;;38.50;18.03;;;-0.30;99.90;;;;;;5062623;28;20220;-79
2022/12/11 04:30:59;;;;;;;44.43;19.40;;;-0.30;99.90;;;;;;5058373;28;20307;-79
2022/12/11 04:33:49;;;;;;;49.20;21.10;;;-0.20;99.90;;;;;;5044056;28;20216;-82
2022/12/11 04:36:38;;;;;;;46.53;21.27;;;-0.10;99.90;;;;;;5058750;28;20227;-80
2022/12/11 04:39:26;;;;;;;45.33;20.30;;;0.00;99.90;;;;;;5041309;28;20231;-80
2022/12/11 04:42:16;;;;;;;46.20;20.93;;;0.00;99.90;;;;;;5055425;28;20212;-81
2022/12/11 04:45:06;;;;;;;45.20;21.37;;;0.00;99.90;;;;;;5038365;28;20216;-80
2022/12/11 04:47:57;;;;;;;47.17;21.80;;;-0.10;99.90;;;;;;5043100;28;20303;-78
2022/12/11 04:50:46;;;;;;;46.13;20.37;;;0.00;99.90;;;;;;5046559;28;20216;-78
2022/12/11 04:53:35;;;;;;;45.00;21.13;;;0.00;99.90;;;;;;5055418;28;20217;-79
2022/12/11 04:56:24;;;;;;;45.60;21.20;;;0.00;99.90;;;;;;5045231;28;20235;-76
2022/12/11 04:59:13;;;;;;;42.47;20.07;;;0.20;99.90;;;;;;5053735;28;20224;-78
2022/12/11 05:02:02;;;;;;;43.43;20.87;;;0.10;99.90;;;;;;5035383;28;20224;-78
2022/12/11 05:04:52;;;;;;;46.37;20.37;;;0.10;99.90;;;;;;5060187;28;20922;-78
2022/12/11 05:07:41;;;;;;;44.17;20.87;;;0.00;99.90;;;;;;5050345;28;20224;-78
2022/12/11 05:10:30;;;;;;;37.23;18.87;;;0.00;99.90;;;;;;5046291;28;20297;-79
2022/12/11 05:13:19;;;;;;;43.80;20.43;;;0.10;99.90;;;;;;5049026;28;20228;-78
2022/12/11 05:16:10;;;;;;;42.13;20.10;;;0.00;99.90;;;;;;5035775;28;20236;-80
2022/12/11 05:18:58;;;;;;;44.60;21.17;;;0.00;99.90;;;;;;5056389;28;20224;-79
2022/12/11 05:21:49;;;;;;;47.77;22.07;;;-0.10;99.90;;;;;;5059836;28;20230;-79
2022/12/11 05:24:37;;;;;;;48.60;21.23;;;-0.10;99.90;;;;;;5055010;28;20221;-78
2022/12/11 05:27:26;;;;;;;42.63;20.30;;;-0.10;99.90;;;;;;5042665;28;20311;-78
2022/12/11 05:30:15;;;;;;;43.07;19.87;;;0.00;99.90;;;;;;5041235;28;20244;-77
2022/12/11 05:33:04;;;;;;;38.93;18.87;;;-0.20;99.90;;;;;;5053784;28;20224;-77
2022/12/11 05:35:53;;;;;;;43.47;19.80;;;-0.10;99.90;;;;;;5039868;28;20225;-77
2022/12/11 05:38:45;;;;;;;40.40;19.27;;;-0.20;99.90;;;;;;5043054;28;20224;-78
2022/12/11 05:41:34;;;;;;;38.10;19.67;;;-0.30;99.90;;;;;;5053017;28;20222;-78
2022/12/11 05:44:22;;;;;;;39.67;18.53;;;-0.20;99.90;;;;;;5058794;28;20239;-78
2022/12/11 05:47:11;;;;;;;37.73;18.40;;;-0.20;99.90;;;;;;5044485;28;20228;-78
2022/12/11 05:50:00;;;;;;;41.27;18.60;;;-0.20;99.90;;;;;;5058988;28;20213;-80
2022/12/11 05:52:49;;;;;;;39.33;19.37;;;-0.30;99.90;;;;;;5061958;28;20224;-77
2022/12/11 05:55:39;;;;;;;37.13;18.27;;;-0.40;99.90;;;;;;5047409;28;20225;-82
2022/12/11 05:58:28;;;;;;;38.30;18.70;;;-0.30;99.90;;;;;;5041297;28;20270;-78
2022/12/11 06:01:19;;;;;;;35.60;18.17;;;-0.40;99.90;;;;;;5056168;28;20315;-77
2022/12/11 06:04:10;;;;;;;37.37;17.73;;;-0.30;99.90;;;;;;5057943;28;20251;-77
2022/12/11 06:06:58;;;;;;;36.37;18.00;;;-0.30;99.90;;;;;;5040317;28;20225;-78
2022/12/11 06:09:47;;;;;;;35.27;16.67;;;-0.40;99.90;;;;;;5042336;28;20224;-79
2022/12/11 06:12:37;;;;;;;33.30;16.70;;;-0.40;99.90;;;;;;5058473;28;20228;-79
2022/12/11 06:15:27;;;;;;;30.43;16.23;;;-0.30;99.90;;;;;;5050630;28;20225;-79
2022/12/11 06:18:15;;;;;;;31.60;15.63;;;-0.30;99.90;;;;;;5037704;28;20227;-80
2022/12/11 06:21:12;;;;;;;29.10;14.83;;;-0.20;99.90;;;;;;5038337;28;20232;-79
2022/12/11 06:24:03;;;;;;;28.30;14.30;;;-0.40;99.90;;;;;;5047700;28;20220;-79
2022/12/11 06:26:51;;;;;;;32.63;15.13;;;-0.50;99.90;;;;;;5053103;28;20732;-78
2022/12/11 06:29:41;;;;;;;29.70;14.50;;;-0.30;99.90;;;;;;5042607;28;20312;-77
2022/12/11 06:32:30;;;;;;;28.67;15.10;;;-0.40;99.90;;;;;;5038704;28;20375;-78
2022/12/11 06:35:19;;;;;;;32.53;15.47;;;-0.40;99.90;;;;;;5038948;28;21501;-78
2022/12/11 06:38:07;;;;;;;26.80;14.87;;;-0.40;99.90;;;;;;5056742;28;20243;-78
2022/12/11 06:40:56;;;;;;;31.20;15.17;;;-0.20;99.90;;;;;;5039743;28;20627;-78
2022/12/11 06:43:45;;;;;;;29.47;14.83;;;-0.20;99.90;;;;;;5041205;28;20212;-82
2022/12/11 06:46:35;;;;;;;30.80;15.47;;;-0.30;99.90;;;;;;5045542;28;21020;-77
2022/12/11 06:49:24;;;;;;;31.47;16.27;;;-0.20;99.90;;;;;;5054612;28;20224;-77
2022/12/11 06:52:13;;;;;;;32.57;15.73;;;-0.40;99.90;;;;;;5050876;28;20217;-77
2022/12/11 06:55:07;;;;;;;34.50;16.17;;;-0.40;99.90;;;;;;5038441;28;20229;-76
2022/12/11 06:57:56;;;;;;;33.00;16.63;;;-0.60;99.90;;;;;;5045374;28;20220;-77
2022/12/11 07:00:45;;;;;;;33.83;16.60;;;-0.70;99.90;;;;;;5055155;28;20610;-77
2022/12/11 07:03:35;;;;;;;30.23;15.67;;;-0.50;99.90;;;;;;5057162;28;20749;-77
2022/12/11 07:06:25;;;;;;;34.13;15.93;;;-0.40;99.90;;;;;;5043144;28;20259;-77
2022/12/11 07:09:14;;;;;;;36.03;13.80;;;-0.30;99.90;;;;;;5042040;28;20221;-77
2022/12/11 07:12:03;;;;;;;27.30;14.47;;;-0.40;99.90;;;;;;5035098;28;20565;-77
2022/12/11 07:14:52;;;;;;;24.97;13.27;;;-0.80;99.90;;;;;;5039243;28;20278;-77
2022/12/11 07:17:41;;;;;;;26.33;13.03;;;-1.00;99.90;;;;;;5040929;28;20730;-77
2022/12/11 07:20:31;;;;;;;26.20;13.43;;;-1.00;99.90;;;;;;5044728;28;20216;-76
2022/12/11 07:23:19;;;;;;;25.10;13.57;;;-1.00;99.90;;;;;;5039274;28;20247;-76
2022/12/11 07:26:10;;;;;;;30.33;14.43;;;-1.10;99.90;;;;;;5045009;28;20213;-76
2022/12/11 07:28:59;;;;;;;27.10;12.93;;;-0.80;99.90;;;;;;5042598;28;20584;-79
2022/12/11 07:31:48;;;;;;;26.43;13.97;;;-0.70;99.90;;;;;;5054187;28;20624;-77
2022/12/11 07:34:37;;;;;;;29.80;13.33;;;-0.80;99.90;;;;;;5060078;28;20600;-78
2022/12/11 07:37:28;;;;;;;26.97;14.07;;;-0.80;99.90;;;;;;5037400;28;20217;-79
2022/12/11 07:40:17;;;;;;;27.20;13.73;;;-0.80;99.90;;;;;;5041953;28;20224;-78
2022/12/11 07:43:06;;;;;;;26.30;13.93;;;-0.70;99.90;;;;;;5051039;28;20220;-78
2022/12/11 07:45:55;;;;;;;32.23;15.80;;;-0.50;99.90;;;;;;5061252;28;20706;-80
2022/12/11 07:48:47;;;;;;;35.30;16.53;;;-0.50;99.90;;;;;;5039264;28;22184;-78
2022/12/11 07:51:38;;;;;;;33.40;17.43;;;-0.60;99.90;;;;;;5067137;28;20220;-78
2022/12/11 07:54:28;;;;;;;31.83;16.63;;;-0.70;99.90;;;;;;5058965;28;20225;-77
2022/12/11 07:57:16;;;;;;;36.93;17.77;;;-0.70;99.90;;;;;;5044082;28;20229;-78
2022/12/11 08:00:07;;;;;;;35.37;17.47;;;-0.80;99.90;;;;;;5039367;28;20265;-77
2022/12/11 08:03:00;;;;;;;35.63;17.97;;;-0.60;99.90;;;;;;5060882;28;20263;-77
2022/12/11 08:05:49;;;;;;;30.40;16.17;;;-0.50;99.90;;;;;;5043021;28;20664;-76
2022/12/11 08:08:38;;;;;;;35.17;16.47;;;-0.70;99.90;;;;;;5055675;28;20225;-77
2022/12/11 08:11:29;;;;;;;33.27;17.17;;;-0.80;99.90;;;;;;5054481;28;20858;-78
2022/12/11 08:14:18;;;;;;;33.00;16.77;;;-0.80;99.90;;;;;;5058803;28;20855;-76
2022/12/11 08:17:07;;;;;;;34.70;16.97;;;-0.60;99.90;;;;;;5043613;28;20235;-79
2022/12/11 08:19:55;;;;;;;31.13;16.03;;;-0.60;99.90;;;;;;5058254;28;20227;-79
2022/12/11 08:22:44;;;;;;;29.57;16.17;;;-0.60;99.90;;;;;;5043517;28;20224;-75
2022/12/11 08:25:33;;;;;;;31.07;15.93;;;-0.50;99.90;;;;;;5055814;28;20706;-77
2022/12/11 08:28:23;;;;;;;31.37;15.83;;;-0.60;99.90;;;;;;5056958;28;20225;-79
2022/12/11 08:31:15;;;;;;;28.70;15.07;;;-0.50;99.90;;;;;;5058964;28;20273;-80
2022/12/11 08:34:04;;;;;;;28.50;14.83;;;-0.70;99.90;;;;;;5053839;28;20818;-81
2022/12/11 08:36:53;;;;;;;29.67;14.90;;;-0.80;99.90;;;;;;5049602;28;20224;-82
2022/12/11 08:39:42;;;;;;;26.47;14.43;;;-0.80;99.90;;;;;;5046726;28;20220;-81
2022/12/11 08:42:31;;;;;;;28.70;14.33;;;-0.90;99.90;;;;;;5043868;28;20248;-81
2022/12/11 08:45:21;;;;;;;29.17;13.93;;;-0.80;99.90;;;;;;5065987;28;20274;-80
2022/12/11 08:48:10;;;;;;;25.73;14.00;;;-0.80;99.90;;;;;;5059096;28;20247;-80
2022/12/11 08:51:01;;;;;;;26.93;13.37;;;-0.80;99.90;;;;;;5047006;28;20766;-81
2022/12/11 08:53:50;;;;;;;26.10;13.87;;;-0.90;99.90;;;;;;5043499;28;20282;-81
2022/12/11 08:56:39;;;;;;;27.13;12.97;;;-0.70;99.90;;;;;;5059919;28;20224;-80
2022/12/11 08:59:27;;;;;;;26.37;13.83;;;-0.60;99.90;;;;;;5042702;28;20720;-80
2022/12/11 09:02:17;;;;;;;28.23;13.23;;;-0.70;99.90;;;;;;5043739;28;20235;-80
2022/12/11 09:05:08;;;;;;;28.03;13.43;;;-0.50;99.90;;;;;;5042775;28;20216;-79
2022/12/11 09:07:58;;;;;;;29.40;13.27;;;-0.30;99.90;;;;;;5041010;28;20228;-80
2022/12/11 09:10:47;;;;;;;28.67;13.70;;;-0.40;99.90;;;;;;5042541;28;20216;-81
2022/12/11 09:13:36;;;;;;;24.20;12.43;;;-0.40;99.90;;;;;;5041324;28;20270;-81
2022/12/11 09:16:26;;;;;;;25.40;12.80;;;-0.50;99.90;;;;;;5045379;28;20224;-80
2022/12/11 09:19:16;;;;;;;29.83;14.07;;;-0.50;99.90;;;;;;5043649;28;20216;-79
2022/12/11 09:22:05;;;;;;;27.10;13.83;;;-0.60;99.90;;;;;;5046947;28;22198;-80
2022/12/11 09:24:54;;;;;;;28.33;14.10;;;-0.50;99.90;;;;;;5055803;28;20250;-78
2022/12/11 09:27:42;;;;;;;29.47;14.47;;;-0.40;99.90;;;;;;5057793;28;20220;-79
2022/12/11 09:30:31;;;;;;;28.37;13.90;;;-0.50;99.90;;;;;;5044272;28;20224;-78
2022/12/11 09:33:20;;;;;;;28.30;13.87;;;-0.40;99.90;;;;;;5039894;28;20987;-77
2022/12/11 09:36:11;;;;;;;26.83;13.37;;;-0.40;99.90;;;;;;5044248;28;20351;-75
2022/12/11 09:39:01;;;;;;;25.13;13.70;;;-0.60;99.90;;;;;;5052416;28;20235;-79
2022/12/11 09:41:55;;;;;;;27.13;12.87;;;-0.80;99.90;;;;;;5052587;28;20225;-78
2022/12/11 09:44:49;;;;;;;30.97;14.47;;;-0.80;99.90;;;;;;5056386;28;20232;-78
2022/12/11 09:47:41;;;;;;;29.00;14.13;;;-0.80;99.90;;;;;;5042790;28;20219;-79
2022/12/11 09:50:34;;;;;;;30.80;14.40;;;-0.90;99.90;;;;;;5038921;28;20226;-78
2022/12/11 09:53:32;;;;;;;29.17;15.67;;;-0.80;99.90;;;;;;5038025;28;20212;-78
2022/12/11 09:56:27;;;;;;;30.93;15.13;;;-0.70;99.90;;;;;;5040626;28;20224;-78
2022/12/11 09:59:27;;;;;;;27.93;13.23;;;-0.70;99.90;;;;;;5041577;28;21005;-79
2022/12/11 10:02:27;;;;;;;26.03;14.47;;;-0.80;99.90;;;;;;5052813;28;20217;-79
2022/12/11 10:05:27;;;;;;;24.93;13.03;;;-0.60;99.90;;;;;;5056457;28;20240;-79
2022/12/11 10:08:23;;;;;;;33.77;19.10;;;-0.60;99.90;;;;;;5051340;28;20221;-80
2022/12/11 10:11:31;;;;;;;28.40;15.53;;;-0.60;99.90;;;;;;5045374;28;20908;-79
2022/12/11 10:14:28;;;;;;;36.93;21.33;;;-0.30;99.90;;;;;;5054571;28;20247;-79
2022/12/11 10:17:20;;;;;;;30.27;14.77;;;-0.30;99.90;;;;;;5047057;28;20232;-78
2022/12/11 10:20:18;;;;;;;38.57;20.53;;;-0.10;99.90;;;;;;5039042;28;20232;-79
2022/12/11 10:23:11;;;;;;;34.03;18.00;;;0.10;99.90;;;;;;5037096;28;20599;-78
2022/12/11 10:26:07;;;;;;;30.30;17.77;;;-0.10;99.90;;;;;;5039160;28;20300;-78
2022/12/11 10:29:00;;;;;;;29.50;15.47;;;-0.30;99.90;;;;;;5045575;28;20230;-79
2022/12/11 10:31:53;;;;;;;26.47;14.70;;;-0.40;99.90;;;;;;5056038;28;20311;-79
2022/12/11 10:34:45;;;;;;;27.47;15.13;;;-0.50;99.90;;;;;;5050776;28;20238;-79
2022/12/11 10:37:34;;;;;;;30.07;13.50;;;-0.50;99.90;;;;;;5042803;28;20299;-78
2022/12/11 10:40:25;;;;;;;28.70;15.43;;;-0.40;99.90;;;;;;5041609;28;20862;-80
2022/12/11 10:43:14;;;;;;;26.77;13.70;;;-0.30;99.90;;;;;;5038282;28;20216;-79
2022/12/11 10:46:05;;;;;;;24.23;13.87;;;-0.10;99.90;;;;;;5034888;28;20688;-79
2022/12/11 10:48:56;;;;;;;25.57;14.50;;;0.10;99.90;;;;;;5034916;28;20251;-80
2022/12/11 10:51:45;;;;;;;27.03;14.20;;;-0.20;99.90;;;;;;5034904;28;20235;-79
2022/12/11 10:54:38;;;;;;;25.80;14.77;;;-0.50;99.90;;;;;;5039363;28;20215;-79
2022/12/11 10:57:29;;;;;;;26.60;14.33;;;-0.20;99.90;;;;;;5045137;28;20230;-79
2022/12/11 11:00:31;;;;;;;29.17;14.67;;;-0.20;99.90;;;;;;5042439;28;20223;-79
2022/12/11 11:03:25;;;;;;;24.60;13.20;;;-0.20;99.90;;;;;;5050619;28;20310;-77
2022/12/11 11:06:17;;;;;;;24.63;12.80;;;-0.20;99.90;;;;;;5032456;28;20224;-77
2022/12/11 11:09:29;;;;;;;23.80;12.53;;;-0.40;99.90;;;;;;5049964;28;20225;-79
2022/12/11 11:12:20;;;;;;;21.17;11.63;;;-0.20;99.90;;;;;;5054450;28;20217;-79
2022/12/11 11:15:13;;;;;;;21.97;12.13;;;-0.10;99.90;;;;;;5038150;28;20707;-79
2022/12/11 11:18:12;;;;;;;20.07;11.00;;;0.00;99.90;;;;;;5054711;28;20546;-79
2022/12/11 11:21:03;;;;;;;20.87;11.60;;;-0.20;99.90;;;;;;5051177;28;20299;-80
2022/12/11 11:23:54;;;;;;;20.83;11.73;;;-0.20;99.90;;;;;;5043217;28;20228;-81
2022/12/11 11:26:42;;;;;;;19.90;11.87;;;-0.20;99.90;;;;;;5058223;28;20221;-79
2022/12/11 11:29:54;;;;;;;22.13;12.90;;;0.10;99.90;;;;;;5052754;28;20227;-80
2022/12/11 11:32:43;;;;;;;25.37;16.63;;;0.00;99.90;;;;;;5039371;28;20603;-80
2022/12/11 11:35:32;;;;;;;25.73;15.77;;;-0.10;99.90;;;;;;5045261;28;20782;-77
2022/12/11 11:38:26;;;;;;;22.53;12.93;;;-0.30;99.90;;;;;;5042222;28;20408;-80
2022/12/11 11:41:19;;;;;;;22.57;13.20;;;-0.20;99.90;;;;;;5041733;28;20299;-80
2022/12/11 11:44:13;;;;;;;23.60;12.37;;;-0.10;99.90;;;;;;5039823;28;20919;-82
2022/12/11 11:47:09;;;;;;;23.40;12.50;;;0.00;99.90;;;;;;5057137;28;20219;-79
2022/12/11 11:50:06;;;;;;;18.07;11.47;;;0.10;99.90;;;;;;5054118;28;20213;-79
2022/12/11 11:53:02;;;;;;;24.27;12.37;;;0.00;99.90;;;;;;5041392;28;20579;-79
2022/12/11 11:56:01;;;;;;;21.57;11.70;;;0.00;99.90;;;;;;5062554;28;20269;-79
2022/12/11 11:58:59;;;;;;;23.03;12.50;;;0.00;99.90;;;;;;5046738;28;20220;-79
2022/12/11 12:01:48;;;;;;;24.60;14.27;;;-0.10;99.90;;;;;;5060852;28;20231;-80
2022/12/11 12:04:37;;;;;;;24.50;13.90;;;-0.20;99.90;;;;;;5059668;28;20239;-77
2022/12/11 12:07:37;;;;;;;23.30;12.00;;;-0.20;99.90;;;;;;5041718;28;20224;-76
2022/12/11 12:10:36;;;;;;;20.77;12.33;;;-0.10;99.90;;;;;;5059107;28;20221;-77
2022/12/11 12:13:35;;;;;;;20.63;12.43;;;0.00;99.90;;;;;;5047315;28;20228;-78
2022/12/11 12:16:48;;;;;;;22.33;11.77;;;0.10;99.90;;;;;;5041381;28;20233;-80
2022/12/11 12:19:51;;;;;;;18.03;11.13;;;0.10;99.90;;;;;;5052949;28;20276;-78
2022/12/11 12:22:52;;;;;;;23.87;11.57;;;0.10;99.90;;;;;;5055045;28;20224;-78
2022/12/11 12:25:46;;;;;;;22.53;13.20;;;-0.20;99.90;;;;;;5043887;28;20215;-79
2022/12/11 12:28:45;;;;;;;22.63;12.83;;;0.10;99.90;;;;;;5046478;28;20227;-77
2022/12/11 12:31:56;;;;;;;22.23;14.07;;;0.30;99.90;;;;;;5046606;28;20220;-76
2022/12/11 12:34:59;;;;;;;25.93;14.43;;;0.30;99.90;;;;;;5062175;28;20217;-78
2022/12/11 12:37:57;;;;;;;24.60;13.70;;;0.20;99.90;;;;;;5057783;28;20219;-78
2022/12/11 12:41:00;;;;;;;25.87;13.60;;;0.20;99.90;;;;;;5050844;28;20235;-78
2022/12/11 12:44:10;;;;;;;26.33;13.57;;;0.10;99.90;;;;;;5046119;28;20233;-80
2022/12/11 12:47:03;;;;;;;27.43;14.13;;;0.20;99.90;;;;;;5054709;28;20320;-82
2022/12/11 12:49:53;;;;;;;30.40;15.83;;;0.20;99.90;;;;;;5059276;28;20784;-79
2022/12/11 12:52:43;;;;;;;28.50;14.77;;;-0.10;99.90;;;;;;5050657;28;20233;-80
2022/12/11 12:55:32;;;;;;;25.60;14.10;;;-0.20;99.90;;;;;;5038201;28;20213;-79
2022/12/11 12:58:27;;;;;;;28.80;14.10;;;-0.20;99.90;;;;;;5043728;28;20389;-79
2022/12/11 13:01:22;;;;;;;26.77;14.67;;;-0.20;99.90;;;;;;5044435;28;20220;-80
2022/12/11 13:04:45;;;;;;;27.50;13.90;;;-0.20;99.90;;;;;;5047531;28;20255;-80
2022/12/11 13:07:49;;;;;;;28.97;14.97;;;-0.20;99.90;;;;;;5052887;28;20296;-80
2022/12/11 13:10:43;;;;;;;28.00;14.43;;;-0.30;99.90;;;;;;5046852;28;20228;-80
2022/12/11 13:13:35;;;;;;;28.77;14.57;;;-0.40;99.90;;;;;;5044703;28;20228;-80
2022/12/11 13:16:34;;;;;;;26.40;14.37;;;-0.20;99.90;;;;;;5056278;28;20228;-80
2022/12/11 13:19:29;;;;;;;28.50;15.20;;;0.00;99.90;;;;;;5043345;28;20258;-81
2022/12/11 13:22:23;;;;;;;31.43;16.10;;;-0.20;99.90;;;;;;5042828;28;20235;-80
2022/12/11 13:25:26;;;;;;;26.37;14.50;;;-0.40;99.90;;;;;;5038661;28;20922;-77
2022/12/11 13:28:34;;;;;;;27.90;13.60;;;-0.40;99.90;;;;;;5041411;28;20219;-79
2022/12/11 13:31:33;;;;;;;24.80;14.13;;;-0.50;99.90;;;;;;5045467;28;20217;-79
2022/12/11 13:34:24;;;;;;;22.63;13.97;;;-0.60;99.90;;;;;;5041966;28;20771;-78
2022/12/11 13:37:25;;;;;;;25.83;14.37;;;-0.60;99.90;;;;;;5040956;28;20236;-78
2022/12/11 13:40:19;;;;;;;25.93;13.37;;;-0.70;99.90;;;;;;5035593;28;20212;-80
2022/12/11 13:43:18;;;;;;;31.60;15.57;;;-0.40;99.90;;;;;;5034967;28;20235;-80
2022/12/11 13:46:10;;;;;;;25.73;14.37;;;-0.30;99.90;;;;;;5048710;28;20724;-79
2022/12/11 13:49:03;;;;;;;34.40;15.10;;;-0.40;99.90;;;;;;5051647;28;20255;-78
2022/12/11 13:51:55;;;;;;;30.37;14.80;;;-0.10;99.90;;;;;;5040592;28;20221;-78
2022/12/11 13:54:48;;;;;;;29.70;15.53;;;-0.20;99.90;;;;;;5048333;28;20224;-78
2022/12/11 13:57:45;;;;;;;31.47;15.83;;;-0.20;99.90;;;;;;5041376;28;20308;-80
2022/12/11 14:00:34;;;;;;;28.20;15.17;;;-0.30;99.90;;;;;;5047267;28;20223;-78
2022/12/11 14:03:23;;;;;;;22.03;13.10;;;-0.30;99.90;;;;;;5043854;28;20220;-78
2022/12/11 14:06:14;;;;;;;25.70;13.70;;;-0.20;99.90;;;;;;5038651;28;20230;-80
2022/12/11 14:09:08;;;;;;;24.27;13.63;;;-0.10;99.90;;;;;;5039846;28;20231;-81
2022/12/11 14:11:58;;;;;;;23.93;12.87;;;-0.10;99.90;;;;;;5048251;28;20749;-80
2022/12/11 14:14:50;;;;;;;21.53;12.73;;;-0.20;99.90;;;;;;5045087;28;20721;-79
2022/12/11 14:17:42;;;;;;;23.10;12.97;;;-0.30;99.90;;;;;;5058906;28;20224;-79
2022/12/11 14:20:39;;;;;;;24.23;13.80;;;-0.30;99.90;;;;;;5059295;28;20801;-81
2022/12/11 14:23:30;;;;;;;23.80;13.20;;;-0.60;99.90;;;;;;5042351;28;20247;-80
2022/12/11 14:26:21;;;;;;;23.00;13.67;;;-0.30;99.90;;;;;;5047975;28;20977;-78
2022/12/11 14:29:24;;;;;;;20.77;12.60;;;-0.30;99.90;;;;;;5034591;28;20788;-79
2022/12/11 14:32:22;;;;;;;32.67;14.60;;;-0.50;99.90;;;;;;5037558;28;20228;-80
2022/12/11 14:35:23;;;;;;;22.13;12.63;;;-0.50;99.90;;;;;;5071447;28;20220;-80
2022/12/11 14:38:16;;;;;;;21.97;12.00;;;-0.40;99.90;;;;;;5049846;28;20889;-79
2022/12/11 14:41:13;;;;;;;21.67;12.30;;;-0.40;99.90;;;;;;5052863;28;20220;-81
2022/12/11 14:44:08;;;;;;;18.97;11.87;;;-0.30;99.90;;;;;;5044582;28;20221;-80
2022/12/11 14:47:00;;;;;;;21.33;11.87;;;-0.40;99.90;;;;;;5058857;28;20228;-77